createdAt,value
2023-05-24T00:02:15.572Z,3.20
2023-05-24T00:04:42.560Z,3.33
2023-05-24T00:07:09.388Z,2.87
2023-05-24T00:09:36.280Z,2.60
2023-05-24T00:12:03.455Z,2.80
2023-05-24T00:14:30.463Z,2.30
2023-05-24T00:16:57.363Z,3.40
2023-05-24T00:19:24.352Z,3.50
2023-05-24T00:21:51.725Z,2.83
2023-05-24T00:24:18.998Z,3.13
2023-05-24T00:26:45.941Z,2.93
2023-05-24T00:29:12.818Z,3.17
2023-05-24T00:31:40.113Z,2.90
2023-05-24T00:34:07.066Z,2.57
2023-05-24T00:36:34.111Z,3.63
2023-05-24T00:39:01.086Z,2.77
2023-05-24T00:41:27.955Z,3.83
2023-05-24T00:43:54.826Z,2.63
2023-05-24T00:46:23.221Z,3.10
2023-05-24T00:48:51.374Z,3.87
2023-05-24T00:51:18.258Z,2.73
2023-05-24T00:53:47.213Z,3.00
2023-05-24T00:56:14.563Z,3.83
2023-05-24T00:58:41.951Z,2.90
2023-05-24T01:01:09.911Z,2.93
2023-05-24T01:03:36.820Z,3.37
2023-05-24T01:06:06.364Z,3.07
2023-05-24T01:08:38.624Z,3.37
2023-05-24T01:11:11.577Z,2.87
2023-05-24T01:13:48.684Z,3.07
2023-05-24T01:16:20.077Z,2.70
2023-05-24T01:18:55.120Z,3.70
2023-05-24T01:21:21.903Z,3.10
2023-05-24T01:24:04.041Z,2.60
2023-05-24T01:26:31.254Z,3.00
2023-05-24T01:28:58.888Z,3.20
2023-05-24T01:31:26.582Z,3.57
2023-05-24T01:33:53.336Z,3.17
2023-05-24T01:36:20.078Z,3.10
2023-05-24T01:38:48.508Z,3.47
2023-05-24T01:41:22.890Z,3.57
2023-05-24T01:44:10.816Z,3.23
2023-05-24T01:46:38.086Z,3.13
2023-05-24T01:49:21.152Z,3.33
2023-05-24T01:51:54.166Z,3.80
2023-05-24T01:54:23.398Z,3.30
2023-05-24T01:56:52.709Z,3.57
2023-05-24T01:59:20.696Z,3.30
2023-05-24T02:01:48.224Z,3.30
2023-05-24T02:04:15.013Z,3.40
2023-05-24T02:06:41.956Z,3.13
2023-05-24T02:09:08.798Z,3.27
2023-05-24T02:11:35.604Z,2.77
2023-05-24T02:14:02.418Z,2.93
2023-05-24T02:16:30.947Z,2.90
2023-05-24T02:18:57.993Z,2.87
2023-05-24T02:21:25.472Z,3.70
2023-05-24T02:23:52.159Z,3.70
2023-05-24T02:26:18.971Z,2.67
2023-05-24T02:28:45.767Z,3.10
2023-05-24T02:31:12.619Z,3.43
2023-05-24T02:33:40.152Z,3.30
2023-05-24T02:36:06.991Z,4.17
2023-05-24T02:38:33.771Z,3.20
2023-05-24T02:41:00.591Z,3.80
2023-05-24T02:43:27.395Z,3.23
2023-05-24T02:45:54.170Z,4.07
2023-05-24T02:48:21.185Z,4.00
2023-05-24T02:50:47.924Z,3.63
2023-05-24T02:53:14.786Z,3.50
2023-05-24T02:55:44.245Z,3.77
2023-05-24T02:58:13.758Z,3.70
2023-05-24T03:00:41.921Z,4.47
2023-05-24T03:03:09.022Z,4.77
2023-05-24T03:05:35.968Z,4.57
2023-05-24T03:08:02.868Z,3.50
2023-05-24T03:10:29.659Z,4.07
2023-05-24T03:12:56.429Z,3.97
2023-05-24T03:15:23.334Z,3.47
2023-05-24T03:17:50.275Z,3.83
2023-05-24T03:20:17.886Z,4.27
2023-05-24T03:22:45.669Z,3.70
2023-05-24T03:25:12.546Z,3.90
2023-05-24T03:27:39.329Z,4.53
2023-05-24T03:30:06.914Z,4.30
2023-05-24T03:32:40.943Z,3.63
2023-05-24T03:35:08.013Z,4.07
2023-05-24T03:37:34.840Z,4.13
2023-05-24T03:40:01.676Z,3.80
2023-05-24T03:42:46.704Z,4.47
2023-05-24T03:45:19.385Z,4.97
2023-05-24T03:47:51.081Z,4.10
2023-05-24T03:50:18.888Z,5.23
2023-05-24T03:52:46.203Z,5.10
2023-05-24T03:55:12.940Z,4.40
2023-05-24T03:57:39.692Z,3.90
2023-05-24T04:00:07.667Z,4.47
2023-05-24T04:02:40.967Z,4.80
2023-05-24T04:05:10.902Z,4.93
2023-05-24T04:07:38.916Z,4.50
2023-05-24T04:10:06.762Z,4.43
2023-05-24T04:12:33.796Z,4.87
2023-05-24T04:15:01.055Z,3.73
2023-05-24T04:17:30.966Z,3.43
2023-05-24T04:19:57.931Z,4.13
2023-05-24T04:22:25.830Z,4.17
2023-05-24T04:24:52.862Z,3.70
2023-05-24T04:27:20.662Z,3.90
2023-05-24T04:29:50.084Z,4.27
2023-05-24T04:32:18.130Z,4.00
2023-05-24T04:34:46.441Z,4.00
2023-05-24T04:37:14.110Z,3.83
2023-05-24T04:39:41.856Z,3.67
2023-05-24T04:42:09.300Z,3.60
2023-05-24T04:44:36.533Z,3.33
2023-05-24T04:47:04.098Z,3.80
2023-05-24T04:49:30.970Z,3.00
2023-05-24T04:51:57.742Z,3.43
2023-05-24T04:54:24.677Z,3.53
2023-05-24T04:56:52.245Z,2.70
2023-05-24T04:59:19.054Z,3.50
2023-05-24T05:01:45.802Z,2.53
2023-05-24T05:04:12.694Z,2.90
2023-05-24T05:06:40.726Z,3.00
2023-05-24T05:09:10.810Z,3.60
2023-05-24T05:11:37.654Z,3.67
2023-05-24T05:14:04.473Z,3.90
2023-05-24T05:16:32.125Z,3.23
2023-05-24T05:18:59.015Z,3.50
2023-05-24T05:21:25.942Z,3.23
2023-05-24T05:23:52.752Z,3.20
2023-05-24T05:26:19.536Z,4.03
2023-05-24T05:28:46.382Z,3.43
2023-05-24T05:31:13.156Z,3.57
2023-05-24T05:33:39.932Z,3.50
2023-05-24T05:36:06.896Z,3.83
2023-05-24T05:38:33.671Z,3.63
2023-05-24T05:41:00.532Z,3.30
2023-05-24T05:43:27.274Z,3.83
2023-05-24T05:45:54.093Z,3.10
2023-05-24T05:48:21.096Z,3.30
2023-05-24T05:50:47.809Z,3.77
2023-05-24T05:53:16.078Z,3.63
2023-05-24T05:55:42.814Z,4.03
2023-05-24T05:58:09.646Z,3.57
2023-05-24T06:00:36.632Z,3.30
2023-05-24T06:03:03.517Z,3.57
2023-05-24T06:05:30.354Z,4.03
2023-05-24T06:07:57.119Z,3.67
2023-05-24T06:10:23.942Z,3.57
2023-05-24T06:12:50.684Z,3.50
2023-05-24T06:15:17.435Z,3.83
2023-05-24T06:17:44.230Z,4.33
2023-05-24T06:20:15.809Z,3.87
2023-05-24T06:22:44.088Z,3.20
2023-05-24T06:25:15.639Z,3.77
2023-05-24T06:27:42.404Z,3.50
2023-05-24T06:30:09.350Z,3.47
2023-05-24T06:32:37.504Z,2.73
2023-05-24T06:35:04.459Z,4.03
2023-05-24T06:37:31.612Z,3.87
2023-05-24T06:39:58.357Z,3.07
2023-05-24T06:42:27.874Z,4.30
2023-05-24T06:44:54.900Z,3.50
2023-05-24T06:47:22.462Z,3.43
2023-05-24T06:49:50.149Z,4.17
2023-05-24T06:52:17.101Z,4.27
2023-05-24T06:54:43.866Z,4.00
2023-05-24T06:57:11.112Z,3.87
2023-05-24T06:59:38.313Z,3.73
2023-05-24T07:02:05.105Z,4.00
2023-05-24T07:04:32.515Z,4.20
2023-05-24T07:06:59.947Z,3.70
2023-05-24T07:09:26.882Z,3.83
2023-05-24T07:11:53.691Z,3.60
2023-05-24T07:14:20.558Z,4.20
2023-05-24T07:16:49.154Z,3.80
2023-05-24T07:19:16.277Z,3.63
2023-05-24T07:21:42.993Z,3.37
2023-05-24T07:24:09.725Z,3.90
2023-05-24T07:26:36.866Z,4.10
2023-05-24T07:29:03.647Z,3.50
2023-05-24T07:31:32.650Z,4.50
2023-05-24T07:33:59.383Z,4.70
2023-05-24T07:36:26.298Z,4.63
2023-05-24T07:38:53.332Z,5.47
2023-05-24T07:41:20.173Z,4.30
2023-05-24T07:43:47.158Z,4.20
2023-05-24T07:46:14.041Z,4.30
2023-05-24T07:48:41.325Z,5.17
2023-05-24T07:51:08.552Z,4.80
2023-05-24T07:53:37.853Z,4.60
2023-05-24T07:56:04.960Z,4.40
2023-05-24T07:58:32.251Z,3.50
2023-05-24T08:00:58.975Z,3.50
2023-05-24T08:03:26.252Z,4.83
2023-05-24T08:05:53.327Z,4.03
2023-05-24T08:08:20.582Z,4.47
2023-05-24T08:10:47.377Z,4.30
2023-05-24T08:13:14.347Z,4.03
2023-05-24T08:15:41.464Z,3.43
2023-05-24T08:18:09.706Z,3.73
2023-05-24T08:20:37.016Z,3.77
2023-05-24T08:23:04.200Z,3.57
2023-05-24T08:25:31.252Z,3.67
2023-05-24T08:27:58.117Z,3.77
2023-05-24T08:30:25.185Z,4.17
2023-05-24T08:32:52.526Z,3.50
2023-05-24T08:35:21.569Z,2.90
2023-05-24T08:37:49.698Z,3.20
2023-05-24T08:40:16.905Z,3.27
2023-05-24T08:42:44.917Z,3.10
2023-05-24T08:45:12.585Z,3.30
2023-05-24T08:47:40.121Z,3.40
2023-05-24T08:50:07.667Z,3.27
2023-05-24T08:52:34.572Z,3.20
2023-05-24T08:55:02.258Z,3.10
2023-05-24T08:57:29.008Z,3.00
2023-05-24T08:59:56.315Z,3.30
2023-05-24T09:02:23.718Z,3.40
2023-05-24T09:04:52.219Z,3.43
2023-05-24T09:07:20.875Z,3.10
2023-05-24T09:09:48.299Z,3.83
2023-05-24T09:12:21.822Z,2.90
2023-05-24T09:14:55.632Z,3.43
2023-05-24T09:17:22.513Z,3.50
2023-05-24T09:19:50.367Z,3.70
2023-05-24T09:22:23.490Z,3.20
2023-05-24T09:24:50.669Z,3.50
2023-05-24T09:27:18.091Z,3.23
2023-05-24T09:29:46.528Z,3.50
2023-05-24T09:32:14.511Z,4.07
2023-05-24T09:34:45.272Z,3.57
2023-05-24T09:37:14.058Z,4.10
2023-05-24T09:39:42.367Z,3.23
2023-05-24T09:42:09.160Z,3.60
2023-05-24T09:44:36.387Z,3.47
2023-05-24T09:47:06.942Z,3.80
2023-05-24T09:49:36.910Z,3.73
2023-05-24T09:52:03.748Z,4.13
2023-05-24T09:54:32.395Z,3.77
2023-05-24T09:57:05.039Z,4.17
2023-05-24T09:59:35.290Z,4.07
2023-05-24T10:02:10.617Z,4.00
2023-05-24T10:04:37.663Z,4.43
2023-05-24T10:07:05.896Z,3.87
2023-05-24T10:09:35.963Z,4.27
2023-05-24T10:12:05.000Z,3.90
2023-05-24T10:14:38.695Z,3.63
2023-05-24T10:17:06.495Z,4.10
2023-05-24T10:19:33.626Z,3.30
2023-05-24T10:22:01.833Z,3.60
2023-05-24T10:24:47.772Z,4.20
2023-05-24T10:27:15.904Z,4.03
2023-05-24T10:29:59.610Z,3.77
2023-05-24T10:32:31.736Z,3.33
2023-05-24T10:34:59.647Z,4.33
2023-05-24T10:37:27.092Z,3.33
2023-05-24T10:39:53.931Z,3.83
2023-05-24T10:42:21.582Z,3.80
2023-05-24T10:44:48.284Z,3.67
2023-05-24T10:47:17.123Z,4.60
2023-05-24T10:49:54.356Z,4.13
2023-05-24T10:52:21.270Z,3.87
2023-05-24T10:55:10.860Z,3.90
2023-05-24T10:57:38.633Z,4.60
2023-05-24T11:00:33.797Z,3.80
2023-05-24T11:03:02.966Z,3.60
2023-05-24T11:05:36.669Z,3.80
2023-05-24T11:08:04.718Z,4.40
2023-05-24T11:10:31.800Z,3.90
2023-05-24T11:13:05.036Z,4.17
2023-05-24T11:15:31.780Z,3.40
2023-05-24T11:18:13.952Z,3.53
2023-05-24T11:20:45.560Z,4.23
2023-05-24T11:23:14.434Z,4.07
2023-05-24T11:25:42.271Z,3.63
2023-05-24T11:28:11.040Z,4.30
2023-05-24T11:30:45.426Z,4.50
2023-05-24T11:33:22.833Z,4.60
2023-05-24T11:35:53.781Z,4.10
2023-05-24T11:38:24.789Z,4.40
2023-05-24T11:40:52.352Z,3.97
2023-05-24T11:43:19.948Z,4.30
2023-05-24T11:45:48.923Z,3.70
2023-05-24T11:48:16.464Z,3.90
2023-05-24T11:53:14.299Z,3.80
2023-05-24T11:55:41.794Z,3.80
2023-05-24T11:58:19.955Z,4.80
2023-05-24T12:00:47.721Z,3.83
2023-05-24T12:03:14.654Z,4.57
2023-05-24T12:05:41.518Z,4.20
2023-05-24T12:08:12.333Z,4.10
2023-05-24T12:10:40.321Z,4.23
2023-05-24T12:13:18.129Z,4.27
2023-05-24T12:15:44.940Z,3.87
2023-05-24T12:18:18.782Z,3.93
2023-05-24T12:20:46.822Z,3.67
2023-05-24T12:23:14.440Z,3.87
2023-05-24T12:25:41.254Z,3.53
2023-05-24T12:28:08.005Z,4.10
2023-05-24T12:30:37.737Z,3.90
2023-05-24T12:33:04.671Z,4.43
2023-05-24T12:35:31.729Z,3.80
2023-05-24T12:38:00.157Z,3.90
2023-05-24T12:40:27.028Z,3.60
2023-05-24T12:42:56.189Z,4.20
2023-05-24T12:45:24.770Z,4.40
2023-05-24T12:47:55.157Z,3.70
2023-05-24T12:50:23.234Z,3.60
2023-05-24T12:52:53.210Z,4.13
2023-05-24T12:55:20.421Z,4.07
2023-05-24T12:57:53.346Z,3.77
2023-05-24T13:00:21.517Z,3.80
2023-05-24T13:02:48.906Z,3.60
2023-05-24T13:05:16.316Z,3.50
2023-05-24T13:07:43.926Z,4.33
2023-05-24T13:10:11.061Z,4.07
2023-05-24T13:12:37.907Z,4.20
2023-05-24T13:15:05.219Z,4.50
2023-05-24T13:17:32.151Z,3.80
2023-05-24T13:19:59.831Z,4.13
2023-05-24T13:22:29.749Z,3.77
2023-05-24T13:24:56.612Z,4.13
2023-05-24T13:27:23.379Z,4.13
2023-05-24T13:30:00.333Z,4.10
2023-05-24T13:32:28.505Z,3.67
2023-05-24T13:34:55.331Z,3.70
2023-05-24T13:37:22.428Z,3.50
2023-05-24T13:39:50.281Z,4.47
2023-05-24T13:42:17.515Z,3.80
2023-05-24T13:44:44.395Z,4.17
2023-05-24T13:47:11.270Z,4.50
2023-05-24T13:49:38.123Z,4.13
2023-05-24T13:52:05.157Z,3.73
2023-05-24T13:54:32.425Z,3.70
2023-05-24T13:56:59.803Z,3.90
2023-05-24T13:59:27.481Z,3.27
2023-05-24T14:01:54.370Z,3.53
2023-05-24T14:04:21.159Z,3.60
2023-05-24T14:06:48.320Z,3.80
2023-05-24T14:09:15.821Z,4.37
2023-05-24T14:11:42.949Z,3.90
2023-05-24T14:16:39.537Z,3.87
2023-05-24T14:19:06.645Z,3.53
2023-05-24T14:21:33.651Z,3.77
2023-05-24T14:24:00.985Z,3.27
2023-05-24T14:26:27.947Z,3.43
2023-05-24T14:28:56.734Z,3.77
2023-05-24T14:31:24.300Z,3.40
2023-05-24T14:33:51.473Z,3.03
2023-05-24T14:36:18.513Z,3.40
2023-05-24T14:38:45.496Z,3.43
2023-05-24T14:41:12.319Z,3.83
2023-05-24T14:43:40.535Z,3.50
2023-05-24T14:46:07.372Z,2.87
2023-05-24T14:48:34.473Z,3.37
2023-05-24T14:51:01.306Z,3.13
2023-05-24T14:53:28.667Z,3.20
2023-05-24T14:55:55.864Z,3.37
2023-05-24T14:58:22.665Z,4.30
2023-05-24T15:00:49.627Z,2.80
2023-05-24T15:03:16.804Z,3.33
2023-05-24T15:05:43.759Z,3.23
2023-05-24T15:08:11.773Z,2.70
2023-05-24T15:10:39.653Z,3.60
2023-05-24T15:13:06.980Z,3.47
2023-05-24T15:15:34.226Z,3.33
2023-05-24T15:18:01.140Z,3.70
2023-05-24T15:20:28.632Z,3.23
2023-05-24T15:22:55.704Z,3.20
2023-05-24T15:25:22.583Z,2.80
2023-05-24T15:27:50.188Z,3.57
2023-05-24T15:30:19.405Z,3.60
2023-05-24T15:32:46.713Z,3.20
2023-05-24T15:35:13.668Z,3.20
2023-05-24T15:37:40.766Z,3.53
2023-05-24T15:40:09.298Z,2.97
2023-05-24T15:42:37.369Z,3.80
2023-05-24T15:45:04.831Z,3.20
2023-05-24T15:47:36.582Z,3.37
2023-05-24T15:50:04.334Z,3.90
2023-05-24T15:52:31.386Z,2.90
2023-05-24T15:54:58.302Z,3.23
2023-05-24T15:57:25.141Z,3.80
2023-05-24T15:59:51.976Z,3.27
2023-05-24T16:02:21.382Z,2.80
2023-05-24T16:04:48.951Z,3.40
2023-05-24T16:07:15.863Z,3.30
2023-05-24T16:09:42.945Z,3.53
2023-05-24T16:12:10.083Z,3.37
2023-05-24T16:14:36.893Z,3.80
2023-05-24T16:17:07.302Z,3.30
2023-05-24T16:19:34.249Z,3.60
2023-05-24T16:22:01.491Z,3.40
2023-05-24T16:24:28.397Z,3.70
2023-05-24T16:26:57.144Z,3.70
2023-05-24T16:29:24.305Z,3.40
2023-05-24T16:31:51.264Z,3.37
2023-05-24T16:34:18.093Z,3.57
2023-05-24T16:36:47.163Z,3.20
2023-05-24T16:39:14.092Z,3.53
2023-05-24T16:41:42.758Z,3.93
2023-05-24T16:44:10.786Z,3.47
2023-05-24T16:46:37.641Z,3.27
2023-05-24T16:49:04.451Z,3.23
2023-05-24T16:51:31.188Z,3.33
2023-05-24T16:53:57.978Z,3.73
2023-05-24T16:56:24.740Z,3.60
2023-05-24T16:58:52.125Z,3.60
2023-05-24T17:01:19.002Z,3.07
2023-05-24T17:03:46.196Z,2.90
2023-05-24T17:06:13.171Z,3.07
2023-05-24T17:08:39.960Z,3.47
2023-05-24T17:11:06.818Z,3.07
2023-05-24T17:13:33.852Z,3.40
2023-05-24T17:16:03.244Z,3.23
2023-05-24T17:18:30.220Z,3.00
2023-05-24T17:20:57.691Z,3.83
2023-05-24T17:23:25.396Z,3.57
2023-05-24T17:25:52.766Z,3.40
2023-05-24T17:28:20.392Z,3.50
2023-05-24T17:30:47.805Z,2.67
2023-05-24T17:33:14.783Z,3.10
2023-05-24T17:35:43.064Z,3.17
2023-05-24T17:38:10.290Z,2.67
2023-05-24T17:40:38.170Z,3.00
2023-05-24T17:43:05.115Z,3.27
2023-05-24T17:45:32.110Z,3.40
2023-05-24T17:47:59.124Z,3.10
2023-05-24T17:50:26.089Z,5.80
2023-05-24T17:52:52.958Z,3.67
2023-05-24T17:55:19.942Z,3.90
2023-05-24T17:57:48.157Z,3.37
2023-05-24T18:00:15.191Z,3.93
2023-05-24T18:02:46.178Z,3.33
2023-05-24T18:05:14.618Z,3.50
2023-05-24T18:07:41.695Z,3.23
2023-05-24T18:10:08.697Z,3.30
2023-05-24T18:12:35.689Z,3.10
2023-05-24T18:15:02.816Z,2.73
2023-05-24T18:17:32.324Z,3.07
2023-05-24T18:19:59.546Z,3.70
2023-05-24T18:22:26.641Z,3.27
2023-05-24T18:24:53.629Z,3.20
2023-05-24T18:27:20.624Z,3.90
2023-05-24T18:29:47.523Z,3.17
2023-05-24T18:32:14.431Z,3.40
2023-05-24T18:34:41.340Z,3.57
2023-05-24T18:37:08.325Z,3.33
2023-05-24T18:39:35.784Z,3.53
2023-05-24T18:42:02.964Z,3.60
2023-05-24T18:44:30.129Z,3.80
2023-05-24T18:46:58.310Z,3.83
2023-05-24T18:49:25.963Z,4.13
2023-05-24T18:51:53.065Z,4.13
2023-05-24T18:54:19.896Z,3.83
2023-05-24T18:56:46.712Z,4.30
2023-05-24T18:59:13.645Z,4.63
2023-05-24T19:01:40.422Z,4.50
2023-05-24T19:04:07.253Z,4.83
2023-05-24T19:06:34.044Z,5.23
2023-05-24T19:09:00.932Z,4.80
2023-05-24T19:11:28.409Z,4.83
2023-05-24T19:13:55.212Z,4.90
2023-05-24T19:16:22.019Z,5.03
2023-05-24T19:18:49.076Z,5.03
2023-05-24T19:21:16.020Z,4.80
2023-05-24T19:23:42.842Z,5.20
2023-05-24T19:26:09.895Z,5.30
2023-05-24T19:28:40.440Z,4.73
2023-05-24T19:31:07.384Z,4.87
2023-05-24T19:33:35.048Z,5.00
2023-05-24T19:36:02.711Z,4.80
2023-05-24T19:38:29.577Z,5.13
2023-05-24T19:40:57.736Z,5.40
2023-05-24T19:43:24.560Z,5.23
2023-05-24T19:45:51.999Z,5.07
2023-05-24T19:48:18.925Z,6.43
2023-05-24T19:50:48.594Z,5.53
2023-05-24T19:53:16.212Z,4.97
2023-05-24T19:55:43.408Z,4.83
2023-05-24T19:58:10.378Z,5.30
2023-05-24T20:00:37.243Z,5.10
2023-05-24T20:03:04.142Z,5.43
2023-05-24T20:05:31.037Z,5.47
2023-05-24T20:07:58.031Z,5.40
2023-05-24T20:10:25.057Z,5.47
2023-05-24T20:12:51.836Z,5.27
2023-05-24T20:15:18.678Z,5.90
2023-05-24T20:17:48.651Z,5.70
2023-05-24T20:20:15.684Z,4.90
2023-05-24T20:22:42.373Z,4.80
2023-05-24T20:25:09.315Z,5.53
2023-05-24T20:27:36.043Z,5.43
2023-05-24T20:30:03.080Z,5.07
2023-05-24T20:32:29.912Z,5.40
2023-05-24T20:34:57.279Z,5.50
2023-05-24T20:37:24.350Z,5.20
2023-05-24T20:39:51.097Z,5.30
2023-05-24T20:42:18.531Z,4.83
2023-05-24T20:44:45.442Z,6.47
2023-05-24T20:47:12.322Z,5.63
2023-05-24T20:49:39.055Z,5.70
2023-05-24T20:52:06.519Z,5.57
2023-05-24T20:54:33.891Z,5.00
2023-05-24T20:57:01.881Z,5.10
2023-05-24T20:59:29.482Z,5.03
2023-05-24T21:01:56.253Z,5.13
2023-05-24T21:04:23.046Z,5.60
2023-05-24T21:06:49.877Z,4.90
2023-05-24T21:09:16.798Z,6.27
2023-05-24T21:11:44.480Z,5.27
2023-05-24T21:14:11.307Z,5.33
2023-05-24T21:16:38.115Z,5.97
2023-05-24T21:19:04.938Z,5.40
2023-05-24T21:21:31.667Z,6.13
2023-05-24T21:23:58.999Z,5.50
2023-05-24T21:26:26.875Z,5.80
2023-05-24T21:28:53.690Z,6.30
2023-05-24T21:31:20.976Z,6.33
2023-05-24T21:33:47.902Z,8.27
2023-05-24T21:36:14.591Z,9.97
2023-05-24T21:38:41.276Z,7.97
2023-05-24T21:41:07.995Z,7.17
2023-05-24T21:43:34.690Z,6.77
2023-05-24T21:46:01.482Z,6.20
2023-05-24T21:48:28.303Z,6.73
2023-05-24T21:50:55.178Z,6.47
2023-05-24T21:53:22.158Z,6.20
2023-05-24T21:55:48.904Z,7.13
2023-05-24T21:58:15.849Z,7.40
2023-05-24T22:00:42.979Z,7.87
2023-05-24T22:03:09.963Z,7.60
2023-05-24T22:05:36.916Z,7.50
2023-05-24T22:08:03.732Z,7.40
2023-05-24T22:10:30.617Z,7.00
2023-05-24T22:12:57.441Z,7.17
2023-05-24T22:15:24.147Z,7.73
2023-05-24T22:17:50.914Z,7.67
2023-05-24T22:20:17.778Z,7.47
2023-05-24T22:22:48.994Z,7.83
2023-05-24T22:25:19.553Z,7.77
2023-05-24T22:27:46.998Z,7.20
2023-05-24T22:30:13.925Z,7.27
2023-05-24T22:32:41.013Z,7.50
2023-05-24T22:35:07.983Z,6.83
2023-05-24T22:37:37.702Z,6.37
2023-05-24T22:40:06.067Z,6.87
2023-05-24T22:42:32.797Z,7.00
2023-05-24T22:44:59.615Z,6.47
2023-05-24T22:47:27.086Z,6.80
2023-05-24T22:49:54.257Z,6.67
2023-05-24T22:52:21.113Z,6.60
2023-05-24T22:54:47.954Z,6.87
2023-05-24T22:57:15.895Z,7.40
2023-05-24T22:59:42.865Z,6.87
2023-05-24T23:02:09.657Z,8.30
2023-05-24T23:04:37.941Z,7.30
2023-05-24T23:07:05.129Z,7.93
2023-05-24T23:09:35.221Z,7.47
2023-05-24T23:12:07.646Z,7.57
2023-05-24T23:14:38.749Z,8.00
2023-05-24T23:17:06.203Z,7.63
2023-05-24T23:19:32.889Z,7.87
2023-05-24T23:21:59.713Z,8.80
2023-05-24T23:24:26.998Z,7.83
2023-05-24T23:26:55.984Z,7.80
2023-05-24T23:29:22.853Z,8.57
2023-05-24T23:31:49.665Z,8.13
2023-05-24T23:34:16.515Z,8.20
2023-05-24T23:36:43.561Z,8.23
2023-05-24T23:39:12.759Z,8.30
2023-05-24T23:41:39.542Z,8.00
2023-05-24T23:44:06.688Z,8.33
2023-05-24T23:46:33.511Z,7.63
2023-05-24T23:49:00.294Z,8.20
2023-05-24T23:51:27.115Z,7.57
2023-05-24T23:53:54.256Z,7.27
2023-05-24T23:56:21.584Z,7.33
2023-05-24T23:58:48.533Z,7.80
